createdAt,value
2024-01-26T00:02:01.385Z,-0.30
2024-01-26T00:04:34.372Z,-0.34
2024-01-26T00:07:07.095Z,-0.38
2024-01-26T00:09:40.324Z,-0.38
2024-01-26T00:12:14.204Z,-0.37
2024-01-26T00:14:46.626Z,-0.40
2024-01-26T00:17:19.179Z,-0.40
2024-01-26T00:19:51.859Z,-0.41
2024-01-26T00:22:24.504Z,-0.43
2024-01-26T00:24:57.720Z,-0.43
2024-01-26T00:27:30.285Z,-0.47
2024-01-26T00:30:03.635Z,-0.48
2024-01-26T00:32:36.199Z,-0.47
2024-01-26T00:35:09.358Z,-0.47
2024-01-26T00:37:42.008Z,-0.49
2024-01-26T00:40:15.223Z,-0.50
2024-01-26T00:42:48.533Z,-0.48
2024-01-26T00:45:22.303Z,-0.51
2024-01-26T00:47:55.236Z,-0.54
2024-01-26T00:50:28.574Z,-0.59
2024-01-26T00:53:01.132Z,-0.54
2024-01-26T00:55:34.144Z,-0.57
2024-01-26T00:58:07.533Z,-0.58
2024-01-26T01:03:13.517Z,-0.57
2024-01-26T01:05:46.889Z,-0.47
2024-01-26T01:08:19.797Z,-0.52
2024-01-26T01:10:52.984Z,-0.55
2024-01-26T01:13:26.981Z,-0.57
2024-01-26T01:16:01.329Z,-0.54
2024-01-26T01:18:34.040Z,-0.53
2024-01-26T01:21:07.008Z,-0.53
2024-01-26T01:23:40.173Z,-0.54
2024-01-26T01:26:13.017Z,-0.52
2024-01-26T01:28:45.911Z,-0.53
2024-01-26T01:31:18.801Z,-0.53
2024-01-26T01:33:51.396Z,-0.51
2024-01-26T01:36:24.099Z,-0.50
2024-01-26T01:38:57.823Z,-0.51
2024-01-26T01:41:30.742Z,-0.48
2024-01-26T01:44:03.657Z,-0.49
2024-01-26T01:46:36.993Z,-0.51
2024-01-26T01:49:09.720Z,-0.50
2024-01-26T01:51:45.125Z,-0.50
2024-01-26T01:54:20.969Z,-0.51
2024-01-26T01:56:58.213Z,-0.49
2024-01-26T01:59:32.045Z,-0.50
2024-01-26T02:02:05.924Z,-0.51
2024-01-26T02:04:39.397Z,-0.52
2024-01-26T02:07:12.091Z,-0.51
2024-01-26T02:09:45.548Z,-0.51
2024-01-26T02:12:18.295Z,-0.50
2024-01-26T02:14:50.847Z,-0.51
2024-01-26T02:17:25.612Z,-0.50
2024-01-26T02:20:00.685Z,-0.48
2024-01-26T02:22:34.489Z,-0.48
2024-01-26T02:25:09.027Z,-0.46
2024-01-26T02:27:42.042Z,-0.45
2024-01-26T02:30:15.633Z,-0.44
2024-01-26T02:32:48.713Z,-0.42
2024-01-26T02:35:21.191Z,-0.41
2024-01-26T02:37:54.144Z,-0.40
2024-01-26T02:40:26.813Z,-0.41
2024-01-26T02:42:59.885Z,-0.41
2024-01-26T02:45:33.389Z,-0.40
2024-01-26T02:48:06.400Z,-0.38
2024-01-26T02:50:39.559Z,-0.37
2024-01-26T02:53:12.182Z,-0.39
2024-01-26T02:55:44.838Z,-0.40
2024-01-26T02:58:18.655Z,-0.41
2024-01-26T03:00:52.386Z,-0.41
2024-01-26T03:03:25.362Z,-0.40
2024-01-26T03:05:58.915Z,-0.40
2024-01-26T03:08:32.936Z,-0.38
2024-01-26T03:11:05.617Z,-0.40
2024-01-26T03:13:38.225Z,-0.40
2024-01-26T03:16:12.130Z,-0.40
2024-01-26T03:18:44.736Z,-0.39
2024-01-26T03:21:17.574Z,-0.36
2024-01-26T03:23:50.731Z,-0.40
2024-01-26T03:26:23.630Z,-0.38
2024-01-26T03:28:56.384Z,-0.40
2024-01-26T03:31:29.251Z,-0.41
2024-01-26T03:34:02.586Z,-0.40
2024-01-26T03:36:35.647Z,-0.40
2024-01-26T03:39:10.762Z,-0.40
2024-01-26T03:41:44.218Z,-0.36
2024-01-26T03:44:17.426Z,-0.37
2024-01-26T03:46:50.900Z,-0.35
2024-01-26T03:49:23.792Z,-0.34
2024-01-26T03:51:56.857Z,-0.36
2024-01-26T03:54:30.456Z,-0.35
2024-01-26T03:57:03.816Z,-0.36
2024-01-26T03:59:37.665Z,-0.34
2024-01-26T04:02:11.509Z,-0.34
2024-01-26T04:04:46.281Z,-0.35
2024-01-26T04:07:19.548Z,-0.36
2024-01-26T04:09:52.168Z,-0.39
2024-01-26T04:12:26.956Z,-0.43
2024-01-26T04:15:00.459Z,-0.44
2024-01-26T04:17:34.489Z,-0.43
2024-01-26T04:20:08.554Z,-0.43
2024-01-26T04:22:43.330Z,-0.44
2024-01-26T04:25:17.988Z,-0.45
2024-01-26T04:27:53.071Z,-0.45
2024-01-26T04:30:28.039Z,-0.47
2024-01-26T04:33:01.494Z,-0.50
2024-01-26T04:35:34.189Z,-0.49
2024-01-26T04:38:08.955Z,-0.34
2024-01-26T04:40:42.876Z,-0.46
2024-01-26T04:43:17.408Z,-0.48
2024-01-26T04:45:51.197Z,-0.51
2024-01-26T04:48:26.053Z,-0.51
2024-01-26T04:50:59.430Z,-0.53
2024-01-26T04:53:34.729Z,-0.52
2024-01-26T04:56:13.106Z,-0.55
2024-01-26T04:58:48.578Z,-0.57
2024-01-26T05:01:25.038Z,-0.58
2024-01-26T05:03:57.817Z,-0.60
2024-01-26T05:06:31.192Z,-0.59
2024-01-26T05:09:05.394Z,-0.61
2024-01-26T05:11:40.827Z,-0.62
2024-01-26T05:14:13.662Z,-0.66
2024-01-26T05:16:47.160Z,-0.67
2024-01-26T05:19:21.856Z,-0.66
2024-01-26T05:21:56.475Z,-0.66
2024-01-26T05:24:31.816Z,-0.65
2024-01-26T05:27:06.696Z,-0.63
2024-01-26T05:29:40.259Z,-0.64
2024-01-26T05:32:13.369Z,-0.63
2024-01-26T05:34:47.456Z,-0.61
2024-01-26T05:37:20.972Z,-0.44
2024-01-26T05:39:53.656Z,-0.53
2024-01-26T05:42:26.461Z,-0.51
2024-01-26T05:44:59.582Z,-0.50
2024-01-26T05:47:34.928Z,-0.48
2024-01-26T05:50:09.408Z,-0.48
2024-01-26T05:52:43.640Z,-0.46
2024-01-26T05:55:19.700Z,-0.43
2024-01-26T05:57:53.980Z,-0.41
2024-01-26T06:00:28.046Z,-0.38
2024-01-26T06:03:01.244Z,-0.35
2024-01-26T06:05:34.930Z,-0.32
2024-01-26T06:08:09.063Z,-0.29
2024-01-26T06:10:42.976Z,-0.26
2024-01-26T06:13:17.641Z,-0.23
2024-01-26T06:15:53.489Z,-0.22
2024-01-26T06:18:26.576Z,-0.20
2024-01-26T06:21:00.991Z,-0.17
2024-01-26T06:23:36.746Z,-0.19
2024-01-26T06:26:11.534Z,-0.20
2024-01-26T06:28:46.579Z,-0.21
2024-01-26T06:31:20.917Z,-0.21
2024-01-26T06:33:54.814Z,-0.23
2024-01-26T06:36:32.519Z,-0.21
2024-01-26T06:39:08.688Z,-0.20
2024-01-26T06:41:46.043Z,-0.18
2024-01-26T06:44:18.539Z,-0.18
2024-01-26T06:46:52.669Z,0.00
2024-01-26T06:49:28.021Z,-0.09
2024-01-26T06:52:01.103Z,-0.09
2024-01-26T06:54:34.175Z,-0.07
2024-01-26T06:57:10.231Z,-0.04
2024-01-26T06:59:43.904Z,0.00
2024-01-26T07:02:17.319Z,0.04
2024-01-26T07:04:51.205Z,0.06
2024-01-26T07:07:24.284Z,0.08
2024-01-26T07:09:59.107Z,0.12
2024-01-26T07:12:34.099Z,0.13
2024-01-26T07:15:11.524Z,0.16
2024-01-26T07:17:45.147Z,0.20
2024-01-26T07:20:19.532Z,0.22
2024-01-26T07:22:53.394Z,0.27
2024-01-26T07:25:25.953Z,0.29
2024-01-26T07:27:59.459Z,0.45
2024-01-26T07:30:32.731Z,0.39
2024-01-26T07:33:08.045Z,0.42
2024-01-26T07:35:41.197Z,0.43
2024-01-26T07:38:15.276Z,0.44
2024-01-26T07:40:49.615Z,0.48
2024-01-26T07:43:24.668Z,0.50
2024-01-26T07:45:58.919Z,0.53
2024-01-26T07:48:33.992Z,0.54
2024-01-26T07:51:08.804Z,0.56
2024-01-26T07:53:41.613Z,0.59
2024-01-26T07:56:14.455Z,0.76
2024-01-26T07:58:52.062Z,0.66
2024-01-26T08:01:25.831Z,0.67
2024-01-26T08:03:59.474Z,0.68
2024-01-26T08:06:33.565Z,0.69
2024-01-26T08:09:06.311Z,0.70
2024-01-26T08:11:40.653Z,0.90
2024-01-26T08:14:15.280Z,0.82
2024-01-26T08:16:49.122Z,0.86
2024-01-26T08:19:23.976Z,0.89
2024-01-26T08:21:57.891Z,1.06
2024-01-26T08:24:30.757Z,0.98
2024-01-26T08:27:04.144Z,0.96
2024-01-26T08:29:39.040Z,0.96
2024-01-26T08:32:11.886Z,0.99
2024-01-26T08:34:45.180Z,1.02
2024-01-26T08:37:18.736Z,1.04
2024-01-26T08:39:52.006Z,1.08
2024-01-26T08:42:25.819Z,1.09
2024-01-26T08:44:59.380Z,1.09
2024-01-26T08:47:33.848Z,1.13
2024-01-26T08:50:07.486Z,1.13
2024-01-26T08:52:41.374Z,1.15
2024-01-26T08:55:16.360Z,1.19
2024-01-26T08:57:50.048Z,1.20
2024-01-26T09:00:24.167Z,1.24
2024-01-26T09:02:57.272Z,1.23
2024-01-26T09:05:30.375Z,1.25
2024-01-26T09:08:03.926Z,1.23
2024-01-26T09:10:36.748Z,1.21
2024-01-26T09:13:09.297Z,1.38
2024-01-26T09:15:42.968Z,1.23
2024-01-26T09:18:16.746Z,1.22
2024-01-26T09:20:54.963Z,1.23
2024-01-26T09:23:27.997Z,1.24
2024-01-26T09:26:01.683Z,1.23
2024-01-26T09:28:36.720Z,1.22
2024-01-26T09:31:11.814Z,1.17
2024-01-26T09:33:45.475Z,1.16
2024-01-26T09:36:20.170Z,1.16
2024-01-26T09:38:52.750Z,1.17
2024-01-26T09:41:27.159Z,1.36
2024-01-26T09:44:00.937Z,1.23
2024-01-26T09:46:35.718Z,1.20
2024-01-26T09:49:11.607Z,1.20
2024-01-26T09:51:44.606Z,1.37
2024-01-26T09:54:21.701Z,1.22
2024-01-26T09:56:56.647Z,1.19
2024-01-26T09:59:29.678Z,1.16
2024-01-26T10:02:03.426Z,1.15
2024-01-26T10:04:36.436Z,1.16
2024-01-26T10:07:09.330Z,1.19
2024-01-26T10:09:44.014Z,1.19
2024-01-26T10:12:17.539Z,1.20
2024-01-26T10:14:52.523Z,1.20
2024-01-26T10:17:34.207Z,1.16
2024-01-26T10:20:19.968Z,1.34
2024-01-26T10:22:55.031Z,1.20
2024-01-26T10:25:28.184Z,1.21
2024-01-26T10:28:05.044Z,1.22
2024-01-26T10:30:41.640Z,1.23
2024-01-26T10:33:16.918Z,1.21
2024-01-26T10:35:52.331Z,1.17
2024-01-26T10:38:26.689Z,1.14
2024-01-26T10:41:07.993Z,1.15
2024-01-26T10:43:44.014Z,1.15
2024-01-26T10:46:18.347Z,1.17
2024-01-26T10:48:54.858Z,1.17
2024-01-26T10:51:29.537Z,1.19
2024-01-26T10:54:12.739Z,1.22
2024-01-26T10:56:47.222Z,1.25
2024-01-26T10:59:21.948Z,1.29
2024-01-26T11:01:56.836Z,1.49
2024-01-26T11:04:32.835Z,1.38
2024-01-26T11:07:08.048Z,1.36
2024-01-26T11:09:48.353Z,1.37
2024-01-26T11:12:27.297Z,1.42
2024-01-26T11:15:19.776Z,1.46
2024-01-26T11:17:59.743Z,1.50
2024-01-26T11:20:36.637Z,1.52
2024-01-26T11:23:15.162Z,1.53
2024-01-26T11:25:54.723Z,1.52
2024-01-26T11:28:31.316Z,1.48
2024-01-26T11:31:05.708Z,1.44
2024-01-26T11:33:39.508Z,1.43
2024-01-26T11:36:14.138Z,1.60
2024-01-26T11:38:49.875Z,1.44
2024-01-26T11:41:25.442Z,1.42
2024-01-26T11:44:03.247Z,1.41
2024-01-26T11:46:38.963Z,1.48
2024-01-26T11:49:11.962Z,1.53
2024-01-26T11:51:46.074Z,1.56
2024-01-26T11:54:21.004Z,1.62
2024-01-26T11:56:52.952Z,1.60
2024-01-26T11:59:26.470Z,1.79
2024-01-26T12:02:00.652Z,1.66
2024-01-26T12:04:34.747Z,1.63
2024-01-26T12:07:09.964Z,1.60
2024-01-26T12:09:45.876Z,1.59
2024-01-26T12:12:20.876Z,1.57
2024-01-26T12:14:53.905Z,1.58
2024-01-26T12:17:26.767Z,1.58
2024-01-26T12:19:59.684Z,1.57
2024-01-26T12:22:36.131Z,1.56
2024-01-26T12:25:11.242Z,1.54
2024-01-26T12:27:45.257Z,1.53
2024-01-26T12:30:24.264Z,1.53
2024-01-26T12:33:09.350Z,1.71
2024-01-26T12:35:43.784Z,1.47
2024-01-26T12:38:20.237Z,1.39
2024-01-26T12:40:53.192Z,1.34
2024-01-26T12:43:26.642Z,1.30
2024-01-26T12:46:00.312Z,1.26
2024-01-26T12:48:34.132Z,1.22
2024-01-26T12:51:08.066Z,1.16
2024-01-26T12:53:41.044Z,1.10
2024-01-26T12:56:14.776Z,1.03
2024-01-26T12:58:47.956Z,0.96
2024-01-26T13:01:22.704Z,0.91
2024-01-26T13:03:56.831Z,0.84
2024-01-26T13:06:29.588Z,0.76
2024-01-26T13:09:02.708Z,0.69
2024-01-26T13:11:37.237Z,0.64
2024-01-26T13:14:10.334Z,0.61
2024-01-26T13:16:44.174Z,0.57
2024-01-26T13:19:19.902Z,0.57
2024-01-26T13:21:53.470Z,0.53
2024-01-26T13:24:27.390Z,0.49
2024-01-26T13:27:07.776Z,0.49
2024-01-26T13:29:36.506Z,0.46
2024-01-26T13:32:10.370Z,0.42
2024-01-26T13:34:46.028Z,0.38
2024-01-26T13:37:19.231Z,0.33
2024-01-26T13:39:52.556Z,0.33
2024-01-26T13:42:27.181Z,0.24
2024-01-26T13:45:01.215Z,0.18
2024-01-26T13:47:36.831Z,0.13
2024-01-26T13:50:11.919Z,0.08
2024-01-26T13:52:45.826Z,0.03
2024-01-26T13:55:20.216Z,-0.02
2024-01-26T13:57:53.642Z,-0.05
2024-01-26T14:00:28.231Z,-0.11
2024-01-26T14:03:02.622Z,-0.13
2024-01-26T14:05:37.343Z,-0.21
2024-01-26T14:08:10.039Z,-0.26
2024-01-26T14:10:42.812Z,-0.10
2024-01-26T14:13:15.985Z,-0.34
2024-01-26T14:15:49.131Z,-0.43
2024-01-26T14:18:23.731Z,-0.50
2024-01-26T14:20:59.350Z,-0.54
2024-01-26T14:23:33.609Z,-0.60
2024-01-26T14:26:12.080Z,-0.63
2024-01-26T14:28:48.228Z,-0.65
2024-01-26T14:31:23.087Z,-0.66
2024-01-26T14:33:57.439Z,-0.70
2024-01-26T14:36:31.453Z,-0.72
2024-01-26T14:39:06.874Z,-0.73
2024-01-26T14:41:40.394Z,-0.74
2024-01-26T14:44:13.678Z,-0.76
2024-01-26T14:46:48.714Z,-0.73
2024-01-26T14:49:22.562Z,-0.72
2024-01-26T14:51:57.771Z,-0.74
2024-01-26T14:54:31.293Z,-0.75
2024-01-26T14:57:04.317Z,-0.76
2024-01-26T14:59:39.278Z,-0.74
2024-01-26T15:02:13.229Z,-0.73
2024-01-26T15:04:46.734Z,-0.71
2024-01-26T15:07:20.415Z,-0.52
2024-01-26T15:09:55.411Z,-0.66
2024-01-26T15:12:30.035Z,-0.68
2024-01-26T15:15:04.176Z,-0.68
2024-01-26T15:17:39.036Z,-0.69
2024-01-26T15:20:13.278Z,-0.71
2024-01-26T15:22:49.561Z,-0.74
2024-01-26T15:25:25.494Z,-0.77
2024-01-26T15:27:58.271Z,-0.80
2024-01-26T15:30:31.975Z,-0.82
2024-01-26T15:33:07.114Z,-0.83
2024-01-26T15:35:40.112Z,-0.83
2024-01-26T15:38:13.251Z,-0.66
2024-01-26T15:40:48.071Z,-0.85
2024-01-26T15:43:21.439Z,-0.88
2024-01-26T15:45:56.509Z,-0.90
2024-01-26T15:48:31.271Z,-0.93
2024-01-26T15:51:06.236Z,-0.91
2024-01-26T15:53:39.251Z,-0.89
2024-01-26T15:56:13.786Z,-0.87
2024-01-26T15:58:48.265Z,-0.85
2024-01-26T16:01:22.109Z,-0.83
2024-01-26T16:03:55.417Z,-0.81
2024-01-26T16:06:30.250Z,-0.79
2024-01-26T16:09:04.706Z,-0.80
2024-01-26T16:11:37.874Z,-0.81
2024-01-26T16:14:13.107Z,-0.81
2024-01-26T16:16:49.714Z,-0.84
2024-01-26T16:19:23.657Z,-0.83
2024-01-26T16:21:57.675Z,-0.83
2024-01-26T16:24:31.865Z,-0.82
2024-01-26T16:27:05.480Z,-0.83
2024-01-26T16:29:39.150Z,-0.84
2024-01-26T16:32:12.229Z,-0.85
2024-01-26T16:34:46.081Z,-0.84
2024-01-26T16:37:19.525Z,-0.84
2024-01-26T16:39:54.049Z,-0.82
2024-01-26T16:42:27.793Z,-0.80
2024-01-26T16:45:01.806Z,-0.79
2024-01-26T16:47:35.849Z,-0.76
2024-01-26T16:50:09.831Z,-0.74
2024-01-26T16:52:43.662Z,-0.73
2024-01-26T16:55:17.129Z,-0.70
2024-01-26T16:57:50.397Z,-0.69
2024-01-26T17:00:25.589Z,-0.69
2024-01-26T17:03:01.305Z,-0.70
2024-01-26T17:05:36.500Z,-0.71
2024-01-26T17:08:10.710Z,-0.70
2024-01-26T17:10:45.548Z,-0.71
2024-01-26T17:13:21.316Z,-0.72
2024-01-26T17:15:55.025Z,-0.71
2024-01-26T17:18:28.419Z,-0.73
2024-01-26T17:21:02.393Z,-0.73
2024-01-26T17:23:37.461Z,-0.73
2024-01-26T17:26:11.157Z,-0.73
2024-01-26T17:28:45.117Z,-0.75
2024-01-26T17:31:19.442Z,-0.74
2024-01-26T17:33:55.092Z,-0.79
2024-01-26T17:36:29.775Z,-0.82
2024-01-26T17:39:03.040Z,-0.86
2024-01-26T17:41:37.956Z,-0.85
2024-01-26T17:44:11.763Z,-0.88
2024-01-26T17:46:49.380Z,-0.90
2024-01-26T17:49:24.273Z,-0.91
2024-01-26T17:51:59.262Z,-0.91
2024-01-26T17:54:33.291Z,-0.90
2024-01-26T17:57:08.294Z,-0.90
2024-01-26T17:59:45.485Z,-0.91
2024-01-26T18:02:23.348Z,-0.90
2024-01-26T18:04:57.112Z,-0.91
2024-01-26T18:07:33.021Z,-0.91
2024-01-26T18:10:07.817Z,-0.93
2024-01-26T18:12:43.416Z,-0.95
2024-01-26T18:15:21.030Z,-0.95
2024-01-26T18:17:54.281Z,-0.94
2024-01-26T18:20:26.988Z,-0.95
2024-01-26T18:23:00.010Z,-0.93
2024-01-26T18:25:33.050Z,-0.94
2024-01-26T18:28:07.842Z,-0.92
2024-01-26T18:30:40.987Z,-0.89
2024-01-26T18:33:14.469Z,-0.86
2024-01-26T18:35:47.960Z,-0.86
2024-01-26T18:38:22.170Z,-0.82
2024-01-26T18:40:54.538Z,-0.80
2024-01-26T18:43:27.076Z,-0.61
2024-01-26T18:45:59.552Z,-0.73
2024-01-26T18:48:33.466Z,-0.74
2024-01-26T18:51:06.765Z,-0.75
2024-01-26T18:53:39.561Z,-0.75
2024-01-26T18:56:13.224Z,-0.77
2024-01-26T18:58:46.782Z,-0.79
2024-01-26T19:01:20.671Z,-0.82
2024-01-26T19:03:54.386Z,-0.84
2024-01-26T19:06:28.736Z,-0.86
2024-01-26T19:09:02.489Z,-0.88
2024-01-26T19:11:35.254Z,-0.89
2024-01-26T19:14:08.015Z,-0.91
2024-01-26T19:16:41.254Z,-0.93
2024-01-26T19:19:16.005Z,-0.96
2024-01-26T19:21:49.398Z,-0.98
2024-01-26T19:24:24.083Z,-1.00
2024-01-26T19:26:58.233Z,-1.03
2024-01-26T19:29:32.839Z,-1.04
2024-01-26T19:32:05.937Z,-1.03
2024-01-26T19:34:39.988Z,-1.04
2024-01-26T19:37:13.334Z,-1.05
2024-01-26T19:39:47.507Z,-1.04
2024-01-26T19:42:21.020Z,-1.03
2024-01-26T19:44:53.872Z,-1.06
2024-01-26T19:47:26.622Z,-1.08
2024-01-26T19:50:00.299Z,-1.11
2024-01-26T19:52:33.732Z,-1.14
2024-01-26T19:55:07.710Z,-1.16
2024-01-26T19:57:43.006Z,-1.18
2024-01-26T20:00:18.189Z,-1.21
2024-01-26T20:02:51.663Z,-1.21
2024-01-26T20:05:24.236Z,-1.22
2024-01-26T20:07:57.605Z,-1.23
2024-01-26T20:10:30.077Z,-1.24
2024-01-26T20:13:02.620Z,-1.27
2024-01-26T20:15:35.592Z,-1.27
2024-01-26T20:18:09.106Z,-1.27
2024-01-26T20:20:42.651Z,-1.27
2024-01-26T20:23:16.019Z,-1.28
2024-01-26T20:25:50.128Z,-1.30
2024-01-26T20:28:23.687Z,-1.31
2024-01-26T20:30:56.880Z,-1.32
2024-01-26T20:33:30.191Z,-1.32
2024-01-26T20:36:04.788Z,-1.32
2024-01-26T20:38:38.013Z,-1.33
2024-01-26T20:41:11.312Z,-1.35
2024-01-26T20:43:44.045Z,-1.37
2024-01-26T20:46:18.241Z,-1.40
2024-01-26T20:48:52.958Z,-1.42
2024-01-26T20:51:26.297Z,-1.45
2024-01-26T20:53:59.353Z,-1.46
2024-01-26T20:56:53.347Z,-1.46
2024-01-26T20:59:26.304Z,-1.28
2024-01-26T21:01:59.663Z,-1.44
2024-01-26T21:04:32.514Z,-1.48
2024-01-26T21:07:07.321Z,-1.49
2024-01-26T21:09:41.332Z,-1.53
2024-01-26T21:12:13.754Z,-1.56
2024-01-26T21:14:47.050Z,-1.39
2024-01-26T21:17:19.562Z,-1.57
2024-01-26T21:19:52.519Z,-1.60
2024-01-26T21:22:25.286Z,-1.62
2024-01-26T21:24:57.997Z,-1.66
2024-01-26T21:27:30.774Z,-1.69
2024-01-26T21:30:03.402Z,-1.70
2024-01-26T21:32:35.973Z,-1.72
2024-01-26T21:35:10.070Z,-1.73
2024-01-26T21:37:45.648Z,-1.75
2024-01-26T21:40:18.895Z,-1.77
2024-01-26T21:42:52.376Z,-1.76
2024-01-26T21:45:25.675Z,-1.76
2024-01-26T21:47:58.941Z,-1.77
2024-01-26T21:50:31.688Z,-1.77
2024-01-26T21:53:05.219Z,-1.79
2024-01-26T21:55:40.218Z,-1.76
2024-01-26T21:58:14.127Z,-1.76
2024-01-26T22:00:47.872Z,-1.79
2024-01-26T22:03:20.921Z,-1.80
2024-01-26T22:05:54.140Z,-1.77
2024-01-26T22:08:27.485Z,-1.78
2024-01-26T22:10:59.934Z,-1.78
2024-01-26T22:13:33.858Z,-1.78
2024-01-26T22:16:07.344Z,-1.77
2024-01-26T22:18:40.714Z,-1.76
2024-01-26T22:21:13.905Z,-1.75
2024-01-26T22:23:47.804Z,-1.74
2024-01-26T22:26:22.775Z,-1.73
2024-01-26T22:28:59.982Z,-1.73
2024-01-26T22:31:32.666Z,-1.74
2024-01-26T22:34:06.433Z,-1.76
2024-01-26T22:36:39.039Z,-1.78
2024-01-26T22:39:12.586Z,-1.80
2024-01-26T22:41:46.333Z,-1.81
2024-01-26T22:44:19.035Z,-1.85
2024-01-26T22:46:51.685Z,-1.84
2024-01-26T22:49:24.343Z,-1.85
2024-01-26T22:51:57.326Z,-1.87
2024-01-26T22:54:30.323Z,-1.86
2024-01-26T22:57:03.528Z,-1.86
2024-01-26T22:59:38.318Z,-1.84
2024-01-26T23:02:11.329Z,-1.85
2024-01-26T23:04:43.904Z,-1.87
2024-01-26T23:07:16.357Z,-1.89
2024-01-26T23:09:49.030Z,-1.89
2024-01-26T23:12:21.763Z,-1.90
2024-01-26T23:14:54.550Z,-1.92
2024-01-26T23:17:27.921Z,-1.94
2024-01-26T23:20:00.505Z,-1.97
2024-01-26T23:22:34.127Z,-1.98
2024-01-26T23:25:08.975Z,-2.00
2024-01-26T23:27:41.757Z,-1.97
2024-01-26T23:30:15.282Z,-1.99
2024-01-26T23:32:48.383Z,-1.98
2024-01-26T23:35:21.654Z,-1.97
2024-01-26T23:37:57.523Z,-1.95
2024-01-26T23:40:30.656Z,-1.95
2024-01-26T23:43:03.395Z,-1.90
2024-01-26T23:45:35.994Z,-1.93
2024-01-26T23:48:14.196Z,-1.92
2024-01-26T23:50:46.821Z,-1.94
2024-01-26T23:53:19.492Z,-1.95
2024-01-26T23:55:52.978Z,-1.98
2024-01-26T23:58:26.889Z,-2.00
